createdAt,value
2022-12-17T07:32:10.093Z,34.45
2022-12-17T07:34:55.936Z,35.15
2022-12-17T07:37:41.526Z,35.58
2022-12-17T07:40:27.708Z,34.53
2022-12-17T07:43:13.000Z,32.65
2022-12-17T07:45:59.098Z,36.97
2022-12-17T07:48:45.272Z,40.03
2022-12-17T07:51:31.342Z,43.15
2022-12-17T07:54:17.041Z,47.92
2022-12-17T07:57:02.427Z,37.45
2022-12-17T07:59:48.686Z,38.83
2022-12-17T08:02:35.313Z,42.67
2022-12-17T08:05:20.552Z,43.58
2022-12-17T08:08:06.095Z,36.10
2022-12-17T08:10:51.620Z,38.50
2022-12-17T08:13:38.926Z,32.58
2022-12-17T08:16:26.364Z,34.28
2022-12-17T08:19:12.962Z,34.67
2022-12-17T08:21:59.597Z,34.55
2022-12-17T08:24:46.160Z,31.98
2022-12-17T08:27:32.722Z,29.38
2022-12-17T08:30:18.083Z,28.25
2022-12-17T08:33:03.378Z,33.35
2022-12-17T08:35:48.989Z,30.77
2022-12-17T08:38:34.607Z,28.92
2022-12-17T08:41:19.881Z,34.55
2022-12-17T08:44:05.495Z,36.70
2022-12-17T08:46:51.216Z,35.00
2022-12-17T08:49:36.897Z,36.78
2022-12-17T08:52:22.725Z,30.50
2022-12-17T08:55:08.586Z,40.92
2022-12-17T08:57:54.024Z,33.95
2022-12-17T09:00:40.257Z,41.33
2022-12-17T09:03:26.581Z,39.13
2022-12-17T09:06:12.977Z,47.65
2022-12-17T09:08:59.359Z,37.53
2022-12-17T09:11:44.825Z,46.65
2022-12-17T09:14:30.300Z,36.33
2022-12-17T09:17:15.812Z,29.50
2022-12-17T09:20:01.306Z,56.50
2022-12-17T09:33:12.031Z,37.67
2022-12-17T09:36:05.145Z,36.10
2022-12-17T09:38:55.416Z,37.47
2022-12-17T09:42:00.516Z,39.25
2022-12-17T09:45:21.988Z,38.13
2022-12-17T09:48:42.859Z,34.85
2022-12-17T09:51:58.049Z,38.30
2022-12-17T09:58:25.638Z,36.28
2022-12-17T10:09:08.383Z,38.00
2022-12-17T10:15:04.579Z,41.53
2022-12-17T10:18:05.271Z,31.48
2022-12-17T10:21:18.152Z,41.60
2022-12-17T10:24:18.328Z,36.00
2022-12-17T10:27:07.688Z,28.45
2022-12-17T10:30:01.014Z,30.37
2022-12-17T10:32:50.457Z,30.98
2022-12-17T10:35:41.636Z,27.45
2022-12-17T10:38:39.731Z,27.25
2022-12-17T10:41:45.397Z,22.70
2022-12-17T10:44:52.039Z,23.77
2022-12-17T10:47:45.692Z,24.05
2022-12-17T10:50:37.527Z,26.65
2022-12-17T10:53:35.040Z,31.52
2022-12-17T10:56:23.408Z,30.70
2022-12-17T10:59:11.000Z,28.33
2022-12-17T11:01:59.304Z,28.67
2022-12-17T11:04:50.842Z,26.38
2022-12-17T11:07:54.494Z,32.00
2022-12-17T11:10:42.790Z,31.80
2022-12-17T11:13:34.707Z,33.60
2022-12-17T11:16:23.009Z,28.05
2022-12-17T11:19:20.826Z,35.47
2022-12-17T11:22:10.107Z,34.17
2022-12-17T11:25:03.219Z,29.45
2022-12-17T11:28:03.205Z,28.85
2022-12-17T11:33:40.791Z,27.65
2022-12-17T11:36:38.757Z,25.00
2022-12-17T11:39:52.604Z,26.25
2022-12-17T11:42:49.609Z,28.98
2022-12-17T11:45:50.691Z,26.15
2022-12-17T11:48:53.928Z,32.97
2022-12-17T11:52:08.400Z,33.20
2022-12-17T11:55:04.726Z,32.60
2022-12-17T11:58:15.134Z,33.42
2022-12-17T12:01:24.427Z,37.05
2022-12-17T12:04:17.668Z,40.00
2022-12-17T12:07:21.675Z,38.72
2022-12-17T12:10:15.417Z,43.35
2022-12-17T12:13:15.684Z,36.17
2022-12-17T12:16:13.501Z,39.85
2022-12-17T12:19:19.338Z,44.35
2022-12-17T12:22:17.198Z,51.00
2022-12-17T12:25:15.475Z,43.67
2022-12-17T12:28:01.065Z,50.05
2022-12-17T12:31:12.578Z,52.95
2022-12-17T12:34:07.631Z,52.38
2022-12-17T12:37:08.525Z,50.20
2022-12-17T12:40:03.297Z,51.17
2022-12-17T12:43:20.045Z,53.78
2022-12-17T12:50:12.966Z,50.00
2022-12-17T12:53:28.860Z,53.83
2022-12-17T12:56:19.591Z,49.42
2022-12-17T12:59:12.174Z,53.80
2022-12-17T13:02:12.963Z,50.53
2022-12-17T13:05:07.451Z,46.38
2022-12-17T13:07:46.767Z,50.28
2022-12-17T13:10:42.415Z,46.60
2022-12-17T13:16:51.008Z,53.05
2022-12-17T13:19:51.209Z,56.47
2022-12-17T13:22:26.030Z,43.92
2022-12-17T13:25:45.599Z,48.30
2022-12-17T13:28:41.680Z,55.38
2022-12-17T13:31:56.370Z,48.40
2022-12-17T13:35:10.255Z,49.60
2022-12-17T13:41:38.769Z,56.58
2022-12-17T13:44:50.001Z,50.40
2022-12-17T13:47:40.566Z,43.35
2022-12-17T13:50:47.924Z,35.75
2022-12-17T13:53:43.281Z,41.78
2022-12-17T13:56:55.314Z,40.88
2022-12-17T13:59:41.238Z,38.15
2022-12-17T14:02:54.919Z,40.35
2022-12-17T14:08:45.667Z,40.00
2022-12-17T14:11:56.869Z,49.30
2022-12-17T14:15:07.660Z,43.53
2022-12-17T14:18:05.560Z,39.35
2022-12-17T14:20:48.467Z,44.40
2022-12-17T14:23:43.347Z,50.13
2022-12-17T14:26:41.444Z,42.55
2022-12-17T14:29:18.477Z,42.40
2022-12-17T14:32:05.583Z,41.22
2022-12-17T14:37:38.036Z,38.17
2022-12-17T14:40:09.331Z,46.65
2022-12-17T14:43:01.380Z,37.38
2022-12-17T14:45:56.961Z,50.22
2022-12-17T14:49:01.461Z,47.55
2022-12-17T14:51:43.076Z,43.50
2022-12-17T14:57:27.532Z,52.58
2022-12-17T15:00:37.097Z,43.28
2022-12-17T15:03:06.622Z,40.60
2022-12-17T15:05:49.646Z,50.10
2022-12-17T15:08:20.471Z,66.53
2022-12-17T15:10:59.358Z,53.92
2022-12-17T15:13:45.019Z,49.03
2022-12-17T15:16:25.053Z,57.95
2022-12-17T15:21:37.235Z,50.75
2022-12-17T15:24:38.569Z,45.42
2022-12-17T15:27:08.671Z,55.75
2022-12-17T15:29:48.414Z,61.45
2022-12-17T15:32:39.292Z,76.93
2022-12-17T15:35:21.636Z,61.25
2022-12-17T15:37:48.373Z,52.92
2022-12-17T15:40:17.405Z,57.17
2022-12-17T15:43:06.073Z,52.37
2022-12-17T15:45:33.484Z,52.63
2022-12-17T15:48:02.992Z,57.08
2022-12-17T15:50:29.772Z,63.88
2022-12-17T15:52:56.414Z,49.45
2022-12-17T15:55:23.089Z,90.25
2022-12-17T15:57:49.863Z,63.15
2022-12-17T16:00:16.749Z,58.65
2022-12-17T16:02:43.532Z,51.50
2022-12-17T16:05:10.608Z,61.97
2022-12-17T16:07:38.100Z,68.07
2022-12-17T16:10:07.567Z,54.28
2022-12-17T16:12:35.108Z,63.13
2022-12-17T16:15:02.946Z,57.50
2022-12-17T16:17:30.308Z,58.75
2022-12-17T16:19:57.785Z,62.85
2022-12-17T16:22:25.537Z,49.90
2022-12-17T16:24:53.858Z,77.78
2022-12-17T16:27:21.629Z,98.25
2022-12-17T16:29:48.726Z,121.40
2022-12-17T16:32:17.153Z,68.07
2022-12-17T16:34:44.909Z,92.55
2022-12-17T16:37:12.984Z,69.75
2022-12-17T16:39:40.048Z,59.90
2022-12-17T16:42:08.228Z,57.90
2022-12-17T16:44:36.283Z,57.00
2022-12-17T16:47:03.988Z,62.53
2022-12-17T16:49:31.358Z,45.45
2022-12-17T16:51:59.513Z,64.25
2022-12-17T16:54:31.332Z,64.20
2022-12-17T16:56:58.371Z,68.22
2022-12-17T16:59:26.052Z,105.07
2022-12-17T17:01:54.506Z,58.53
2022-12-17T17:04:23.570Z,59.20
2022-12-17T17:06:53.856Z,72.25
2022-12-17T17:09:22.569Z,65.85
2022-12-17T17:11:52.328Z,62.90
2022-12-17T17:14:20.920Z,52.72
2022-12-17T17:16:48.386Z,85.22
2022-12-17T17:19:15.916Z,65.88
2022-12-17T17:21:48.828Z,57.28
2022-12-17T17:24:21.271Z,66.88
2022-12-17T17:26:50.213Z,61.97
2022-12-17T17:29:17.313Z,59.67
2022-12-17T17:34:32.661Z,77.55
2022-12-17T17:36:59.497Z,77.57
2022-12-17T17:39:28.026Z,50.10
2022-12-17T17:41:55.844Z,49.40
2022-12-17T17:44:23.535Z,44.15
2022-12-17T17:46:51.121Z,97.93
2022-12-17T17:49:18.579Z,54.40
2022-12-17T17:54:34.522Z,57.25
2022-12-17T17:57:02.308Z,47.22
2022-12-17T17:59:33.678Z,44.85
2022-12-17T18:02:02.518Z,55.97
2022-12-17T18:04:30.655Z,47.45
2022-12-17T18:09:46.409Z,109.75
2022-12-17T18:12:33.064Z,84.00
2022-12-17T18:15:17.786Z,44.95
2022-12-17T18:17:47.442Z,79.90
2022-12-17T18:20:15.038Z,57.10
2022-12-17T18:22:42.503Z,56.45
2022-12-17T18:25:10.729Z,58.72
2022-12-17T18:27:38.198Z,62.25
2022-12-17T18:30:05.835Z,54.72
2022-12-17T18:32:36.673Z,58.67
2022-12-17T18:35:04.442Z,80.07
2022-12-17T18:37:31.714Z,55.40
2022-12-17T18:39:59.426Z,75.90
2022-12-17T18:42:44.835Z,64.07
2022-12-17T18:45:13.031Z,131.13
2022-12-17T18:47:40.439Z,85.57
2022-12-17T18:50:10.752Z,89.03
2022-12-17T18:52:38.600Z,67.00
2022-12-17T18:55:06.298Z,66.70
2022-12-17T18:57:36.047Z,71.40
2022-12-17T19:00:04.500Z,67.53
2022-12-17T19:02:32.121Z,61.92
2022-12-17T19:04:59.183Z,94.97
2022-12-17T19:07:26.556Z,60.42
2022-12-17T19:09:53.589Z,71.65
2022-12-17T19:12:21.581Z,96.22
2022-12-17T19:14:49.013Z,72.00
2022-12-17T19:17:16.587Z,88.40
2022-12-17T19:19:43.970Z,64.93
2022-12-17T19:22:11.242Z,90.38
2022-12-17T19:24:38.775Z,61.05
2022-12-17T19:27:05.794Z,60.03
2022-12-17T19:29:33.065Z,63.05
2022-12-17T19:32:00.623Z,62.80
2022-12-17T19:34:29.384Z,57.92
2022-12-17T19:36:57.455Z,59.75
2022-12-17T19:39:25.152Z,58.15
2022-12-17T19:41:52.763Z,60.85
2022-12-17T19:44:23.139Z,55.83
2022-12-17T19:46:50.659Z,50.33
2022-12-17T19:49:18.117Z,51.15
2022-12-17T19:51:45.706Z,52.17
2022-12-17T19:54:15.646Z,55.28
2022-12-17T19:59:13.768Z,56.03
2022-12-17T20:01:47.198Z,54.60
2022-12-17T20:04:16.554Z,56.53
2022-12-17T20:06:45.290Z,86.22
2022-12-17T20:09:13.691Z,57.17
2022-12-17T20:11:41.007Z,60.10
2022-12-17T20:14:26.767Z,56.05
2022-12-17T20:16:57.961Z,69.07
2022-12-17T20:19:27.348Z,89.45
2022-12-17T20:21:55.573Z,69.82
2022-12-17T20:24:30.379Z,90.40
2022-12-17T20:26:59.041Z,53.58
2022-12-17T20:29:26.247Z,53.78
2022-12-17T20:31:54.425Z,87.63
2022-12-17T20:34:22.318Z,68.53
2022-12-17T20:36:50.534Z,71.95
2022-12-17T20:39:20.705Z,71.43
2022-12-17T20:41:52.229Z,57.90
2022-12-17T20:44:19.357Z,48.50
2022-12-17T20:46:47.982Z,48.50
2022-12-17T20:49:15.002Z,54.10
2022-12-17T20:51:46.279Z,46.05
2022-12-17T20:54:13.925Z,43.63
2022-12-17T20:56:41.319Z,41.97
2022-12-17T20:59:12.992Z,47.13
2022-12-17T21:01:39.728Z,44.35
2022-12-17T21:04:07.429Z,48.08
2022-12-17T21:06:43.711Z,53.22
2022-12-17T21:09:11.893Z,46.10
2022-12-17T21:11:40.507Z,52.95
2022-12-17T21:14:10.774Z,57.05
2022-12-17T21:16:38.629Z,56.75
2022-12-17T21:19:08.001Z,57.63
2022-12-17T21:21:38.015Z,59.97
2022-12-17T21:24:05.769Z,62.70
2022-12-17T21:26:35.765Z,61.88
2022-12-17T21:31:38.424Z,43.45
2022-12-17T21:34:08.243Z,46.70
2022-12-17T21:36:36.391Z,50.92
2022-12-17T21:39:09.246Z,49.75
2022-12-17T21:41:39.327Z,55.10
2022-12-17T21:44:14.855Z,55.78
2022-12-17T21:46:42.691Z,51.28
2022-12-17T21:49:11.013Z,57.22
2022-12-17T21:51:38.592Z,53.60
2022-12-17T21:54:09.035Z,54.30
2022-12-17T21:56:37.614Z,65.20
2022-12-17T21:59:07.357Z,74.10
2022-12-17T22:01:37.483Z,90.68
2022-12-17T22:04:05.004Z,86.00
2022-12-17T22:06:40.142Z,56.17
2022-12-17T22:09:20.327Z,67.50
2022-12-17T22:12:20.847Z,49.40
2022-12-17T22:14:47.898Z,78.10
2022-12-17T22:17:14.601Z,82.40
2022-12-17T22:19:41.558Z,88.97
2022-12-17T22:22:08.181Z,52.47
2022-12-17T22:24:36.493Z,70.18
2022-12-17T22:27:03.582Z,87.65
2022-12-17T22:29:49.419Z,69.18
2022-12-17T22:32:34.883Z,75.40
2022-12-17T22:35:52.748Z,45.58
2022-12-17T22:41:55.876Z,63.17
2022-12-17T22:44:34.958Z,59.33
2022-12-17T22:44:45.403Z,54.05
2022-12-17T22:46:16.883Z,45.42
2022-12-17T22:48:43.657Z,48.33
2022-12-17T22:51:21.231Z,51.65
2022-12-17T22:54:00.626Z,46.85
2022-12-17T22:56:43.833Z,49.80
2022-12-17T22:59:19.538Z,69.50
2022-12-17T23:01:47.476Z,54.42
2022-12-17T23:04:16.115Z,44.38
2022-12-17T23:06:45.633Z,45.45
2022-12-17T23:09:21.852Z,49.17
2022-12-17T23:11:49.449Z,53.33
2022-12-17T23:14:17.787Z,49.78
2022-12-17T23:16:48.589Z,43.78
2022-12-17T23:19:15.842Z,43.22
2022-12-17T23:21:43.137Z,43.05
2022-12-17T23:24:10.613Z,43.28
2022-12-17T23:26:41.041Z,43.20
2022-12-17T23:29:10.927Z,39.88
2022-12-17T23:31:40.632Z,42.13
2022-12-17T23:34:10.163Z,43.83
2022-12-17T23:36:37.550Z,42.30
2022-12-17T23:39:05.658Z,47.00
2022-12-17T23:41:32.997Z,41.50
2022-12-17T23:44:00.565Z,42.97
2022-12-17T23:46:30.077Z,48.20
2022-12-17T23:48:57.215Z,46.15
2022-12-17T23:51:24.691Z,40.75
2022-12-17T23:53:51.683Z,39.03
2022-12-17T23:56:24.187Z,39.58
2022-12-17T23:58:59.425Z,41.90
